Time;durP1;ratioP1;P1;durP2;ratioP2;P2;SDS_P1;SDS_P2;PMS_P1;PMS_P2;Temp;Humidity;BMP_temperature;BMP_pressure;BME280_temperature;BME280_humidity;BME280_pressure;Samples;Min_cycle;Max_cycle;Signal;HPM_P1;HPM_P2
2022/09/17 00:01:19;;;;;;;53.53;45.90;;;27.30;99.90;;;;;;5017306;28;20030;-64
2022/09/17 00:03:51;;;;;;;54.03;43.20;;;27.40;99.90;;;;;;5017066;28;20109;-64
2022/09/17 00:06:17;;;;;;;;;;;27.40;99.90;;;;;;5017942;28;20026;-64
2022/09/17 00:08:44;;;;;;;65.32;44.97;;;27.40;99.90;;;;;;5017283;28;19905;-64
2022/09/17 00:11:16;;;;;;;55.03;41.28;;;27.50;99.90;;;;;;5017140;28;20029;-64
2022/09/17 00:13:44;;;;;;;53.03;41.78;;;27.50;99.90;;;;;;5017247;28;20390;-64
2022/09/17 00:16:11;;;;;;;61.42;42.92;;;27.50;99.90;;;;;;5017230;28;20060;-64
2022/09/17 00:18:40;;;;;;;63.88;44.55;;;27.60;99.90;;;;;;5016794;28;20084;-64
2022/09/17 00:21:16;;;;;;;63.10;44.28;;;27.70;99.90;;;;;;5017070;28;20092;-63
2022/09/17 00:23:43;;;;;;;50.20;41.17;;;27.80;99.90;;;;;;5016780;28;20498;-64
2022/09/17 00:26:10;;;;;;;62.03;40.83;;;27.80;99.90;;;;;;5016594;28;20029;-63
2022/09/17 00:28:37;;;;;;;53.75;40.38;;;27.90;99.90;;;;;;5016857;28;20018;-64
2022/09/17 00:31:07;;;;;;;60.25;44.63;;;28.00;99.90;;;;;;5015801;28;20034;-64
2022/09/17 00:33:34;;;;;;;60.95;47.20;;;28.00;99.90;;;;;;5016623;28;20026;-63
2022/09/17 00:36:03;;;;;;;62.15;45.30;;;28.00;99.90;;;;;;5008970;28;20037;-64
2022/09/17 00:38:30;;;;;;;57.05;41.50;;;28.10;99.90;;;;;;4997249;28;20022;-64
2022/09/17 00:40:56;;;;;;;51.03;40.13;;;28.10;99.90;;;;;;4996838;28;20034;-64
2022/09/17 00:43:42;;;;;;;52.35;40.65;;;28.20;99.90;;;;;;4996782;28;20031;-64
2022/09/17 00:46:23;;;;;;;56.28;40.85;;;28.20;99.90;;;;;;4996747;28;20022;-64
2022/09/17 00:48:52;;;;;;;65.45;43.95;;;28.30;99.90;;;;;;4996754;28;20365;-64
2022/09/17 00:51:26;;;;;;;50.53;41.78;;;28.30;99.90;;;;;;4996624;28;20476;-63
2022/09/17 00:53:52;;;;;;;59.90;45.08;;;28.40;99.90;;;;;;4996566;28;20054;-64
2022/09/17 00:56:30;;;;;;;61.28;45.15;;;28.40;99.90;;;;;;4996655;28;20034;-63
2022/09/17 00:58:57;;;;;;;61.08;45.58;;;28.50;99.90;;;;;;4996660;28;20391;-64
2022/09/17 01:01:24;;;;;;;64.10;47.88;;;28.60;99.90;;;;;;4996258;28;20475;-64
2022/09/17 01:03:50;;;;;;;67.82;48.85;;;28.70;99.90;;;;;;4997684;28;20040;-64
2022/09/17 01:06:18;;;;;;;63.50;47.00;;;28.70;99.90;;;;;;5003189;28;20097;-64
2022/09/17 01:09:06;;;;;;;75.53;51.75;;;28.70;99.90;;;;;;5015964;28;20026;-64
2022/09/17 01:11:52;;;;;;;62.40;47.08;;;28.70;99.90;;;;;;4999448;28;20034;-64
2022/09/17 01:14:25;;;;;;;77.18;53.00;;;28.70;99.90;;;;;;4996340;28;20031;-64
2022/09/17 01:17:21;;;;;;;65.25;49.35;;;28.70;99.90;;;;;;4997563;28;20033;-63
2022/09/17 01:20:15;;;;;;;86.28;59.67;;;28.80;99.90;;;;;;5015704;28;20145;-64
2022/09/17 01:22:53;;;;;;;75.47;53.65;;;28.80;99.90;;;;;;5015653;28;20053;-64
2022/09/17 01:25:31;;;;;;;82.82;55.97;;;28.80;99.90;;;;;;5015550;28;20487;-64
2022/09/17 01:28:00;;;;;;;87.38;62.53;;;28.70;99.90;;;;;;5015839;28;20018;-64
2022/09/17 01:30:31;;;;;;;93.95;61.65;;;28.80;99.90;;;;;;5016050;28;20025;-65
2022/09/17 01:33:10;;;;;;;84.47;59.88;;;28.80;99.90;;;;;;5015764;28;20482;-64
2022/09/17 01:35:57;;;;;;;82.63;58.03;;;28.90;99.90;;;;;;5004272;28;20034;-63
2022/09/17 01:38:49;;;;;;;69.90;48.75;;;29.00;99.90;;;;;;5005300;28;20019;-64
2022/09/17 01:41:20;;;;;;;;;;;29.10;99.90;;;;;;4965643;28;20460;-63
2022/09/17 01:44:05;;;;;;;70.45;46.97;;;29.10;99.90;;;;;;4962791;28;19914;-63
2022/09/17 01:46:48;;;;;;;62.45;44.72;;;29.30;99.90;;;;;;4954852;29;20035;-63
2022/09/17 01:49:16;;;;;;;60.45;46.13;;;29.30;99.90;;;;;;4954848;29;20409;-64
2022/09/17 01:51:47;;;;;;;59.78;44.67;;;29.30;99.90;;;;;;4954773;29;20110;-63
2022/09/17 01:54:22;;;;;;;54.00;40.95;;;29.40;99.90;;;;;;4954668;29;20439;-64
2022/09/17 01:56:57;;;;;;;56.20;39.72;;;29.40;99.90;;;;;;4954848;29;20047;-63
2022/09/17 01:59:45;;;;;;;47.35;37.70;;;29.40;99.90;;;;;;4954765;29;20158;-64
2022/09/17 02:02:20;;;;;;;58.35;40.95;;;29.40;99.90;;;;;;4954712;29;20178;-64
2022/09/17 02:04:57;;;;;;;60.90;43.38;;;29.50;99.90;;;;;;4954645;28;20030;-64
2022/09/17 02:07:25;;;;;;;61.70;43.25;;;29.50;99.90;;;;;;4954396;28;20569;-64
2022/09/17 02:09:58;;;;;;;55.50;38.22;;;29.60;99.90;;;;;;4954494;29;20038;-64
2022/09/17 02:12:32;;;;;;;48.28;36.15;;;29.70;99.90;;;;;;4954239;29;20106;-64
2022/09/17 02:15:02;;;;;;;51.60;37.08;;;29.70;99.90;;;;;;4954279;28;20028;-64
2022/09/17 02:17:54;;;;;;;44.78;35.15;;;29.80;99.90;;;;;;4954379;29;20158;-64
2022/09/17 02:20:28;;;;;;;46.22;35.03;;;29.70;99.90;;;;;;4954267;29;20370;-64
2022/09/17 02:22:58;;;;;;;45.58;34.58;;;29.70;99.90;;;;;;4954007;29;20035;-64
2022/09/17 05:09:28;;;;;;;28.70;18.77;;;31.20;99.90;;;;;;5056822;28;20427;-66
2022/09/17 05:11:54;;;;;;;28.10;19.15;;;32.10;99.90;;;;;;5055307;28;20394;-66
2022/09/17 05:14:21;;;;;;;26.35;18.52;;;32.00;99.90;;;;;;5056331;28;20051;-65
2022/09/17 05:16:47;;;;;;;25.20;19.42;;;32.00;99.90;;;;;;5056603;27;20025;-66
2022/09/17 05:19:15;;;;;;;44.22;30.65;;;32.00;99.90;;;;;;5054959;28;20108;-66
2022/09/17 05:21:41;;;;;;;34.75;26.40;;;32.00;99.90;;;;;;5058356;27;20474;-66
2022/09/17 05:24:08;;;;;;;35.58;24.17;;;31.90;99.90;;;;;;5056677;28;20134;-65
2022/09/17 05:26:35;;;;;;;35.70;28.15;;;31.90;99.90;;;;;;5055364;28;20108;-65
2022/09/17 05:29:03;;;;;;;37.55;27.48;;;31.90;99.90;;;;;;5055718;28;20476;-66
2022/09/17 05:31:30;;;;;;;29.90;22.88;;;32.00;99.90;;;;;;5054221;27;20029;-66
2022/09/17 05:33:58;;;;;;;34.35;25.05;;;32.00;99.90;;;;;;5060021;28;20013;-65
2022/09/17 05:36:25;;;;;;;33.72;24.63;;;32.10;99.90;;;;;;5066506;27;20105;-65
2022/09/17 05:38:51;;;;;;;28.88;21.60;;;32.10;99.90;;;;;;5058023;28;20074;-66
2022/09/17 05:41:18;;;;;;;26.25;20.05;;;32.20;99.90;;;;;;5056396;28;20017;-65
2022/09/17 05:43:44;;;;;;;23.55;17.67;;;32.30;99.90;;;;;;5055639;28;20041;-65
2022/09/17 05:46:11;;;;;;;26.15;19.75;;;32.20;99.90;;;;;;5056226;27;20028;-65
2022/09/17 05:48:38;;;;;;;30.85;22.83;;;32.20;99.90;;;;;;5055692;27;20108;-65
2022/09/17 05:51:04;;;;;;;36.45;27.10;;;32.20;99.90;;;;;;5097566;22;20052;-64
2022/09/17 05:53:31;;;;;;;34.17;26.58;;;32.10;99.90;;;;;;5079233;28;20024;-65
2022/09/17 05:55:58;;;;;;;44.45;32.30;;;32.10;99.90;;;;;;5079388;28;20359;-65
2022/09/17 05:58:26;;;;;;;45.03;31.88;;;32.10;99.90;;;;;;5073279;28;20028;-65
2022/09/17 06:00:52;;;;;;;37.17;27.20;;;32.10;99.90;;;;;;5068125;28;20027;-65
2022/09/17 06:03:22;;;;;;;37.97;28.20;;;32.10;99.90;;;;;;5068430;28;20491;-64
2022/09/17 06:05:55;;;;;;;41.00;28.98;;;32.10;99.90;;;;;;5067309;28;20056;-65
2022/09/17 06:08:22;;;;;;;36.53;27.90;;;32.20;99.90;;;;;;5065366;28;20096;-66
2022/09/17 06:10:49;;;;;;;119.07;83.00;;;32.20;99.90;;;;;;5054127;28;20075;-66
2022/09/17 06:13:17;;;;;;;110.40;74.32;;;32.10;99.90;;;;;;5054425;28;20024;-63
2022/09/17 06:15:50;;;;;;;48.42;37.25;;;32.10;99.90;;;;;;5054120;28;20032;-63
2022/09/17 06:18:17;;;;;;;56.33;41.50;;;32.10;99.90;;;;;;5049835;28;20028;-62
2022/09/17 06:20:51;;;;;;;67.22;44.33;;;32.10;99.90;;;;;;5047402;28;20070;-63
2022/09/17 06:23:18;;;;;;;42.65;30.20;;;32.30;99.90;;;;;;5055601;28;20036;-63
2022/09/17 06:25:52;;;;;;;34.97;27.90;;;32.30;99.90;;;;;;5055511;28;20466;-63
2022/09/17 06:28:18;;;;;;;40.22;30.25;;;32.40;99.90;;;;;;5055206;28;20036;-63
2022/09/17 06:30:45;;;;;;;72.90;56.15;;;32.50;99.90;;;;;;5055406;28;20131;-63
2022/09/17 06:33:11;;;;;;;47.05;37.20;;;32.60;99.90;;;;;;5055237;28;20060;-63
2022/09/17 06:35:38;;;;;;;50.08;36.53;;;32.70;99.90;;;;;;5041122;28;20108;-63
2022/09/17 06:38:05;;;;;;;42.85;33.30;;;32.50;99.90;;;;;;5041814;28;20036;-63
2022/09/17 06:40:31;;;;;;;35.95;29.00;;;32.50;99.90;;;;;;5043052;28;20482;-63
2022/09/17 06:42:59;;;;;;;43.83;34.85;;;32.40;99.80;;;;;;5049027;28;20090;-62
2022/09/17 06:45:26;;;;;;;56.05;43.90;;;32.30;99.90;;;;;;5052982;28;20025;-61
2022/09/17 06:47:53;;;;;;;56.90;40.85;;;32.30;99.90;;;;;;5050976;28;20030;-61
2022/09/17 06:50:19;;;;;;;51.53;37.63;;;32.30;99.90;;;;;;5048239;28;20045;-62
2022/09/17 06:52:51;;;;;;;50.28;31.08;;;32.30;99.90;;;;;;5054140;28;20033;-61
2022/09/17 06:55:18;;;;;;;28.10;21.42;;;32.30;99.10;;;;;;5054597;28;20014;-62
2022/09/17 06:57:45;;;;;;;254.68;147.85;;;32.20;98.40;;;;;;5053886;28;20052;-62
2022/09/17 07:00:14;;;;;;;150.10;99.95;;;32.20;99.50;;;;;;5053289;28;20025;-62
2022/09/17 07:02:40;;;;;;;201.32;123.38;;;32.30;99.00;;;;;;5053301;28;20060;-62
2022/09/17 07:05:07;;;;;;;74.53;50.25;;;32.20;99.90;;;;;;5053724;28;20033;-62
2022/09/17 07:07:38;;;;;;;315.65;199.70;;;32.20;99.60;;;;;;5054639;28;20083;-62
2022/09/17 07:10:04;;;;;;;117.85;70.72;;;32.20;99.00;;;;;;5054635;28;20390;-62
2022/09/17 07:12:31;;;;;;;89.75;51.78;;;32.20;99.10;;;;;;5046327;28;20017;-62
2022/09/17 07:14:57;;;;;;;72.32;44.30;;;32.20;98.30;;;;;;5050506;28;20475;-62
2022/09/17 07:17:24;;;;;;;70.75;45.63;;;32.20;98.10;;;;;;5053183;28;20428;-62
2022/09/17 07:19:50;;;;;;;51.60;33.92;;;32.20;98.60;;;;;;5053153;28;20395;-62
2022/09/17 07:22:18;;;;;;;190.02;122.25;;;32.20;97.50;;;;;;5053690;28;20536;-62
2022/09/17 07:24:44;;;;;;;74.45;45.28;;;32.20;97.70;;;;;;5054313;28;20063;-62
2022/09/17 07:27:11;;;;;;;152.23;85.88;;;32.20;97.80;;;;;;5054098;28;20033;-62
2022/09/17 07:29:37;;;;;;;45.90;27.55;;;32.20;98.10;;;;;;5054370;28;20021;-62
2022/09/17 07:32:04;;;;;;;64.43;41.47;;;32.10;98.00;;;;;;5048701;28;20021;-62
2022/09/17 07:34:30;;;;;;;56.88;34.55;;;32.00;98.80;;;;;;5048526;28;20013;-62
2022/09/17 07:36:57;;;;;;;114.50;68.78;;;32.10;99.30;;;;;;5052846;28;20072;-62
2022/09/17 07:39:23;;;;;;;184.80;121.00;;;32.00;99.90;;;;;;5050027;28;20020;-62
2022/09/17 07:41:50;;;;;;;42.03;26.33;;;32.00;99.70;;;;;;5052717;28;20104;-62
2022/09/17 07:44:17;;;;;;;43.90;20.20;;;32.00;99.30;;;;;;5052474;28;20021;-62
2022/09/17 07:46:43;;;;;;;34.60;17.83;;;31.90;99.90;;;;;;5046833;28;20080;-62
2022/09/17 07:49:11;;;;;;;37.70;18.90;;;31.60;99.90;;;;;;5051759;28;20024;-61
2022/09/17 07:51:37;;;;;;;37.08;21.63;;;31.40;99.90;;;;;;5052768;28;20041;-64
2022/09/17 07:54:05;;;;;;;33.83;20.45;;;31.20;99.90;;;;;;5048303;28;20029;-64
2022/09/17 07:56:31;;;;;;;35.58;19.90;;;31.20;99.90;;;;;;5045813;28;20476;-65
2022/09/17 07:58:58;;;;;;;29.77;18.45;;;31.20;99.90;;;;;;5051753;28;20029;-63
2022/09/17 08:01:26;;;;;;;29.17;14.23;;;31.20;99.90;;;;;;5046676;28;20051;-63
2022/09/17 08:03:54;;;;;;;37.75;20.00;;;31.10;99.90;;;;;;5045463;28;20089;-62
2022/09/17 08:06:24;;;;;;;45.55;24.27;;;31.10;99.90;;;;;;5051214;28;20104;-62
2022/09/17 08:08:51;;;;;;;27.88;17.35;;;31.10;99.90;;;;;;5051127;28;20130;-62
2022/09/17 08:11:21;;;;;;;39.03;20.48;;;31.20;99.90;;;;;;5049751;28;20096;-63
2022/09/17 08:13:49;;;;;;;26.25;13.63;;;31.20;99.90;;;;;;5040929;28;20055;-66
2022/09/17 08:16:16;;;;;;;28.38;17.17;;;31.30;99.90;;;;;;5053377;28;20094;-64
2022/09/17 08:18:44;;;;;;;29.67;17.77;;;31.30;99.90;;;;;;5046332;28;20024;-64
2022/09/17 08:21:13;;;;;;;30.02;17.83;;;31.40;99.90;;;;;;5039575;28;20033;-64
2022/09/17 08:23:41;;;;;;;38.75;23.05;;;31.40;99.90;;;;;;5051496;28;20067;-63
2022/09/17 08:26:12;;;;;;;52.10;28.50;;;31.50;99.90;;;;;;5051355;28;20048;-64
2022/09/17 08:28:39;;;;;;;54.77;28.90;;;31.60;99.90;;;;;;5046555;28;20017;-64
2022/09/17 08:31:07;;;;;;;40.08;22.45;;;31.70;99.90;;;;;;5052145;28;20048;-64
2022/09/17 08:33:36;;;;;;;31.95;21.38;;;31.60;99.90;;;;;;5051954;28;20032;-63
2022/09/17 08:36:03;;;;;;;112.65;68.68;;;31.60;99.90;;;;;;5052402;28;20447;-63
2022/09/17 08:38:32;;;;;;;91.32;58.33;;;31.60;99.90;;;;;;5048849;28;20020;-63
2022/09/17 08:41:07;;;;;;;72.85;45.35;;;31.30;99.90;;;;;;5051963;28;20035;-63
2022/09/17 08:43:40;;;;;;;54.88;27.50;;;31.20;99.90;;;;;;5052233;28;20040;-63
2022/09/17 08:46:10;;;;;;;30.60;17.17;;;31.10;99.90;;;;;;5036248;28;20036;-63
2022/09/17 08:48:46;;;;;;;33.97;18.33;;;31.10;99.90;;;;;;5025959;28;20040;-63
2022/09/17 08:51:34;;;;;;;25.38;14.82;;;31.00;99.90;;;;;;5049272;28;20486;-64
2022/09/17 08:54:07;;;;;;;28.73;11.57;;;31.00;99.90;;;;;;5033118;28;20044;-63
2022/09/17 08:56:36;;;;;;;94.85;69.53;;;31.10;99.90;;;;;;5053152;28;20029;-64
2022/09/17 08:59:10;;;;;;;58.45;43.65;;;31.10;99.90;;;;;;5045379;28;20410;-65
2022/09/17 09:01:40;;;;;;;22.98;15.50;;;31.00;99.90;;;;;;5045847;28;20052;-65
2022/09/17 09:04:12;;;;;;;16.48;11.02;;;31.20;99.90;;;;;;5040451;28;20028;-65
2022/09/17 09:06:49;;;;;;;26.20;16.38;;;31.20;99.90;;;;;;5048176;28;20452;-63
2022/09/17 09:09:19;;;;;;;16.77;11.65;;;31.20;99.90;;;;;;5045046;28;20037;-63
2022/09/17 09:11:49;;;;;;;21.98;14.30;;;31.00;99.90;;;;;;5043535;28;20025;-63
2022/09/17 09:14:18;;;;;;;30.25;16.10;;;31.00;99.90;;;;;;5049310;28;20029;-63
2022/09/17 09:16:45;;;;;;;44.42;27.15;;;31.10;99.90;;;;;;5041049;28;20510;-63
2022/09/17 09:19:17;;;;;;;30.70;18.15;;;31.20;99.90;;;;;;5042368;28;20034;-64
2022/09/17 09:21:49;;;;;;;18.27;12.55;;;31.10;99.90;;;;;;5034108;28;20065;-64
2022/09/17 09:24:24;;;;;;;31.05;16.30;;;31.00;99.90;;;;;;5031638;28;20029;-65
2022/09/17 09:27:13;;;;;;;30.63;13.45;;;31.00;99.90;;;;;;5031944;28;20029;-64
2022/09/17 09:29:52;;;;;;;34.42;26.02;;;31.00;99.90;;;;;;5025567;28;20041;-65
2022/09/17 09:32:33;;;;;;;66.15;41.70;;;30.90;99.90;;;;;;5033370;28;20072;-64
2022/09/17 09:35:11;;;;;;;93.43;61.95;;;30.80;99.90;;;;;;5032890;28;20029;-65
2022/09/17 09:37:42;;;;;;;60.92;41.80;;;30.90;99.90;;;;;;5032693;28;20083;-64
2022/09/17 09:40:31;;;;;;;365.80;266.00;;;30.90;99.90;;;;;;5032622;28;20029;-64
2022/09/17 09:43:02;;;;;;;41.75;25.85;;;30.90;99.90;;;;;;5016398;28;20044;-65
2022/09/17 09:45:32;;;;;;;52.53;32.85;;;30.80;99.90;;;;;;5035807;28;20025;-65
2022/09/17 09:48:09;;;;;;;40.55;21.80;;;30.80;99.90;;;;;;5036205;28;20483;-65
2022/09/17 09:50:47;;;;;;;42.97;24.23;;;30.80;99.90;;;;;;5031936;28;20045;-64
2022/09/17 09:53:16;;;;;;;44.75;28.35;;;30.80;99.90;;;;;;5036794;28;20115;-64
2022/09/17 09:56:05;;;;;;;34.03;18.23;;;30.80;99.90;;;;;;5049950;28;20025;-64
2022/09/17 09:58:39;;;;;;;27.60;16.77;;;30.80;99.90;;;;;;5015986;28;20037;-65
2022/09/17 10:01:21;;;;;;;33.83;15.43;;;30.80;99.90;;;;;;5054974;28;20020;-63
2022/09/17 10:03:50;;;;;;;25.45;13.88;;;30.70;99.90;;;;;;5055582;28;20028;-64
2022/09/17 10:06:18;;;;;;;24.08;14.32;;;30.70;99.90;;;;;;5049526;28;20434;-64
2022/09/17 10:08:49;;;;;;;80.88;52.55;;;30.70;99.90;;;;;;5054686;28;20079;-62
2022/09/17 10:11:23;;;;;;;130.43;99.87;;;30.70;99.90;;;;;;5054714;28;20383;-63
2022/09/17 10:13:50;;;;;;;34.58;22.25;;;30.70;99.90;;;;;;5054708;28;20025;-62
2022/09/17 10:16:19;;;;;;;113.28;73.95;;;30.60;99.90;;;;;;5049391;28;20024;-62
2022/09/17 10:18:47;;;;;;;121.45;88.60;;;30.60;99.90;;;;;;5054438;28;20025;-62
2022/09/17 10:21:22;;;;;;;73.43;38.20;;;30.60;99.90;;;;;;5054452;28;20047;-62
2022/09/17 10:23:49;;;;;;;191.13;118.97;;;30.60;99.90;;;;;;5054518;28;20108;-62
2022/09/17 10:26:21;;;;;;;72.30;43.35;;;30.40;99.90;;;;;;5054316;28;20458;-62
2022/09/17 10:28:55;;;;;;;348.90;152.52;;;30.40;99.90;;;;;;5054358;28;20029;-62
2022/09/17 10:31:23;;;;;;;97.78;47.08;;;30.40;99.90;;;;;;5050237;28;20013;-63
2022/09/17 10:33:52;;;;;;;65.93;41.08;;;30.40;99.90;;;;;;5054414;28;20498;-65
2022/09/17 10:36:39;;;;;;;277.80;130.32;;;30.40;99.90;;;;;;5049601;28;20540;-62
2022/09/17 10:39:10;;;;;;;375.35;156.77;;;30.40;99.90;;;;;;5051101;28;20075;-63
2022/09/17 10:41:46;;;;;;;299.25;194.07;;;30.40;99.90;;;;;;5049114;28;20017;-64
2022/09/17 10:44:17;;;;;;;196.10;133.05;;;30.40;99.90;;;;;;5054777;28;20465;-63
2022/09/17 10:46:44;;;;;;;409.60;220.82;;;30.30;99.90;;;;;;5047229;28;20039;-62
2022/09/17 10:49:17;;;;;;;367.98;220.30;;;30.30;99.90;;;;;;5054884;28;20055;-63
2022/09/17 10:51:44;;;;;;;214.50;132.98;;;30.30;99.90;;;;;;5050595;28;20044;-64
2022/09/17 10:54:17;;;;;;;145.05;96.10;;;30.20;99.90;;;;;;5054523;28;20075;-63
2022/09/17 10:56:51;;;;;;;96.63;58.22;;;30.20;99.90;;;;;;5054511;28;20107;-63
2022/09/17 10:59:23;;;;;;;129.07;71.97;;;30.10;99.90;;;;;;5054560;28;20024;-63
2022/09/17 11:01:52;;;;;;;247.43;101.30;;;30.10;99.90;;;;;;5035127;28;20106;-62
2022/09/17 11:04:24;;;;;;;482.27;220.93;;;30.10;99.90;;;;;;5035094;28;20337;-65
2022/09/17 11:06:54;;;;;;;546.20;271.55;;;30.10;99.90;;;;;;5035041;28;20049;-66
2022/09/17 11:09:32;;;;;;;267.02;129.00;;;30.00;99.90;;;;;;5034827;28;20072;-64
2022/09/17 11:12:11;;;;;;;127.97;58.33;;;30.00;99.90;;;;;;5034804;28;20395;-63
2022/09/17 11:14:50;;;;;;;97.85;44.50;;;29.90;99.90;;;;;;5034744;28;20022;-63
2022/09/17 11:17:27;;;;;;;134.15;55.65;;;29.90;99.90;;;;;;5034670;28;20472;-63
2022/09/17 11:19:58;;;;;;;113.50;47.95;;;29.90;99.90;;;;;;5041743;28;20036;-63
2022/09/17 11:22:27;;;;;;;112.57;48.60;;;29.90;99.90;;;;;;5054531;28;20021;-63
2022/09/17 11:25:04;;;;;;;65.10;33.17;;;29.90;99.90;;;;;;5049227;28;20029;-63
2022/09/17 11:27:34;;;;;;;104.80;66.90;;;29.90;99.90;;;;;;5048247;28;20044;-62
2022/09/17 11:30:04;;;;;;;97.07;53.70;;;29.80;99.90;;;;;;5051942;28;20039;-62
2022/09/17 11:32:33;;;;;;;107.57;54.67;;;29.80;99.90;;;;;;5053929;28;20021;-63
2022/09/17 11:35:03;;;;;;;89.97;52.85;;;29.80;99.90;;;;;;5054209;28;20489;-63
2022/09/17 11:37:34;;;;;;;95.95;63.63;;;29.70;99.90;;;;;;5053930;28;20078;-63
2022/09/17 11:40:08;;;;;;;190.00;115.45;;;29.70;99.90;;;;;;5053843;28;20033;-65
2022/09/17 11:42:54;;;;;;;107.15;63.35;;;29.70;99.90;;;;;;5054549;28;20436;-65
2022/09/17 11:45:28;;;;;;;140.40;74.38;;;29.60;99.90;;;;;;5054124;28;20364;-63
2022/09/17 11:48:04;;;;;;;109.65;54.50;;;29.60;99.90;;;;;;5054057;28;20063;-63
2022/09/17 11:51:10;;;;;;;55.15;30.45;;;29.60;99.90;;;;;;5053419;28;20040;-63
2022/09/17 11:53:46;;;;;;;53.40;23.40;;;29.60;99.90;;;;;;5053037;28;20029;-65
2022/09/17 11:56:20;;;;;;;42.20;23.42;;;29.50;99.90;;;;;;5053870;28;20067;-66
2022/09/17 11:58:49;;;;;;;52.33;28.25;;;29.60;99.90;;;;;;5053842;28;20546;-65
2022/09/17 12:01:24;;;;;;;52.40;29.35;;;29.50;99.90;;;;;;5053535;28;20502;-66
2022/09/17 12:04:13;;;;;;;56.33;30.02;;;29.50;99.90;;;;;;5053762;28;20429;-64
2022/09/17 12:06:53;;;;;;;63.70;36.28;;;29.40;99.90;;;;;;5053857;28;20541;-63
2022/09/17 12:09:24;;;;;;;61.13;35.47;;;29.40;99.90;;;;;;5054579;28;20079;-63
2022/09/17 12:11:59;;;;;;;67.50;37.63;;;29.40;99.90;;;;;;5045404;28;20314;-63
2022/09/17 12:14:39;;;;;;;73.40;40.22;;;29.40;99.90;;;;;;5036595;28;20028;-63
2022/09/17 12:17:11;;;;;;;71.00;38.58;;;29.40;99.90;;;;;;5054513;28;20021;-63
2022/09/17 12:19:53;;;;;;;72.78;37.58;;;29.30;99.90;;;;;;5054073;28;20025;-63
2022/09/17 12:22:21;;;;;;;57.30;31.30;;;29.30;99.90;;;;;;5054598;28;20064;-62
2022/09/17 12:24:51;;;;;;;48.85;27.48;;;29.30;99.90;;;;;;5054413;28;20047;-63
2022/09/17 12:27:19;;;;;;;50.58;24.90;;;29.20;99.90;;;;;;5054563;28;20021;-63
2022/09/17 12:29:55;;;;;;;54.80;27.63;;;29.10;99.90;;;;;;5054707;28;20017;-63
2022/09/17 12:32:27;;;;;;;73.60;34.08;;;29.00;99.90;;;;;;5054283;28;20055;-63
2022/09/17 12:35:00;;;;;;;68.72;31.63;;;29.00;99.90;;;;;;5053209;28;20492;-62
2022/09/17 12:37:31;;;;;;;60.72;31.85;;;28.80;99.90;;;;;;5052116;28;20017;-63
2022/09/17 12:40:07;;;;;;;71.57;32.20;;;28.80;99.90;;;;;;5052072;28;20378;-64
2022/09/17 12:42:41;;;;;;;56.92;29.17;;;28.70;99.90;;;;;;5052020;28;20017;-64
2022/09/17 12:45:16;;;;;;;61.88;28.70;;;28.70;99.90;;;;;;5049314;28;20040;-63
2022/09/17 12:47:46;;;;;;;65.13;30.55;;;28.70;99.90;;;;;;5049753;28;20566;-64
2022/09/17 12:50:16;;;;;;;63.47;29.73;;;28.80;99.90;;;;;;5045767;28;20115;-64
2022/09/17 12:52:53;;;;;;;59.40;30.98;;;28.80;99.90;;;;;;5052323;28;20039;-63
2022/09/17 12:55:24;;;;;;;66.55;34.22;;;28.70;99.90;;;;;;5042799;28;20037;-63
2022/09/17 12:57:58;;;;;;;79.05;41.05;;;28.60;99.90;;;;;;5045277;28;20024;-65
2022/09/17 13:00:25;;;;;;;73.15;36.92;;;28.70;99.90;;;;;;5047542;28;20394;-63
2022/09/17 13:02:53;;;;;;;57.22;25.13;;;28.60;99.90;;;;;;5051693;28;20055;-64
2022/09/17 13:05:29;;;;;;;57.28;25.00;;;28.50;99.90;;;;;;5040862;28;20442;-63
2022/09/17 13:07:59;;;;;;;48.78;22.88;;;28.50;99.90;;;;;;5048680;28;20533;-63
2022/09/17 13:10:30;;;;;;;46.38;24.58;;;28.50;99.90;;;;;;5051368;28;20032;-64
2022/09/17 13:13:05;;;;;;;73.03;44.92;;;28.50;99.90;;;;;;5051352;28;20029;-62
2022/09/17 13:15:32;;;;;;;76.03;42.53;;;28.50;99.90;;;;;;5051655;28;20024;-63
2022/09/17 13:18:11;;;;;;;45.83;24.85;;;28.60;99.90;;;;;;5044512;28;20028;-62
2022/09/17 13:20:43;;;;;;;55.63;32.00;;;28.50;99.90;;;;;;5041588;28;20387;-63
2022/09/17 13:23:11;;;;;;;74.70;45.35;;;28.60;99.90;;;;;;5049208;28;20025;-63
2022/09/17 13:25:52;;;;;;;56.47;31.95;;;28.60;99.90;;;;;;5052627;28;20044;-63
2022/09/17 13:28:19;;;;;;;39.13;18.52;;;28.50;99.90;;;;;;5055116;28;20106;-63
2022/09/17 13:30:50;;;;;;;28.13;12.63;;;28.50;99.90;;;;;;5054857;28;20061;-62
2022/09/17 13:33:39;;;;;;;23.15;13.00;;;28.50;99.90;;;;;;5049727;28;20019;-62
2022/09/17 13:36:28;;;;;;;22.05;13.50;;;28.50;99.90;;;;;;5051688;28;20029;-62
2022/09/17 13:38:54;;;;;;;33.30;15.05;;;28.50;99.90;;;;;;5054334;28;20045;-63
2022/09/17 13:41:23;;;;;;;33.00;17.65;;;28.50;99.90;;;;;;5054670;28;20043;-62
2022/09/17 13:43:53;;;;;;;24.90;14.82;;;28.50;99.90;;;;;;5055758;28;20044;-64
2022/09/17 13:46:26;;;;;;;27.35;15.32;;;28.50;99.90;;;;;;5055765;28;20033;-63
2022/09/17 13:49:11;;;;;;;23.88;14.68;;;28.50;99.90;;;;;;5055752;28;20025;-62
2022/09/17 13:51:37;;;;;;;24.15;15.82;;;28.40;99.90;;;;;;5055297;28;20438;-63
2022/09/17 13:54:09;;;;;;;23.17;14.88;;;28.40;99.90;;;;;;5041926;28;20033;-62
2022/09/17 13:56:41;;;;;;;28.83;15.57;;;28.30;99.90;;;;;;5036395;28;20024;-62
2022/09/17 13:59:11;;;;;;;24.52;15.48;;;28.30;99.90;;;;;;5046482;28;20083;-62
2022/09/17 14:01:43;;;;;;;31.20;15.98;;;28.30;99.90;;;;;;5056530;28;20492;-63
2022/09/17 14:04:33;;;;;;;42.42;22.40;;;28.30;99.90;;;;;;5056169;28;20033;-62
2022/09/17 14:07:20;;;;;;;36.63;19.35;;;28.30;99.90;;;;;;5056026;28;20033;-62
2022/09/17 14:09:51;;;;;;;23.15;15.25;;;28.30;99.90;;;;;;5054893;28;20528;-63
2022/09/17 14:12:22;;;;;;;19.98;13.80;;;28.30;99.90;;;;;;5055378;28;20024;-63
2022/09/17 14:14:51;;;;;;;24.08;13.77;;;28.30;99.90;;;;;;5055542;28;20300;-62
2022/09/17 14:17:40;;;;;;;29.67;14.25;;;28.30;99.90;;;;;;5055288;28;20056;-62
2022/09/17 14:20:08;;;;;;;24.10;14.38;;;28.30;99.90;;;;;;5054935;28;20044;-62
2022/09/17 14:22:34;;;;;;;20.88;12.82;;;28.30;99.90;;;;;;5055137;28;20037;-63
2022/09/17 14:25:01;;;;;;;29.75;15.05;;;28.30;99.90;;;;;;5036495;28;20068;-63
2022/09/17 14:27:33;;;;;;;33.60;18.20;;;28.30;99.90;;;;;;5035583;28;20018;-62
2022/09/17 14:30:01;;;;;;;34.35;20.45;;;28.20;99.90;;;;;;5034494;28;20112;-63
2022/09/17 14:32:36;;;;;;;36.85;23.33;;;28.20;99.90;;;;;;5034840;28;20033;-62
2022/09/17 14:35:15;;;;;;;31.30;17.23;;;28.20;99.90;;;;;;5035332;28;20020;-63
2022/09/17 14:37:44;;;;;;;27.02;14.82;;;28.20;99.90;;;;;;5035352;28;20431;-62
2022/09/17 14:40:17;;;;;;;21.60;14.52;;;28.20;99.90;;;;;;5034942;28;20026;-63
2022/09/17 14:42:46;;;;;;;22.17;15.27;;;28.20;99.90;;;;;;5034843;28;20052;-63
2022/09/17 14:45:20;;;;;;;28.65;14.95;;;28.20;99.90;;;;;;5034704;28;20021;-62
2022/09/17 14:47:47;;;;;;;25.05;14.10;;;28.30;99.90;;;;;;5035085;28;20021;-63
2022/09/17 14:50:19;;;;;;;27.67;15.60;;;28.20;99.90;;;;;;5035387;28;20049;-63
2022/09/17 14:52:49;;;;;;;27.55;15.80;;;28.30;99.90;;;;;;5035863;28;20072;-63
2022/09/17 14:55:20;;;;;;;25.67;15.32;;;28.30;99.90;;;;;;5035416;28;20025;-63
2022/09/17 14:57:53;;;;;;;27.02;14.80;;;28.20;99.90;;;;;;5035114;28;20022;-62
2022/09/17 15:00:36;;;;;;;25.20;14.50;;;28.10;99.90;;;;;;5047226;28;20021;-63
2022/09/17 15:03:04;;;;;;;20.98;13.55;;;28.10;99.90;;;;;;5041955;28;20079;-63
2022/09/17 15:05:37;;;;;;;18.00;14.05;;;28.00;99.90;;;;;;5047998;28;20044;-64
2022/09/17 15:08:08;;;;;;;23.98;13.88;;;28.00;99.90;;;;;;5054256;28;20028;-63
2022/09/17 15:10:54;;;;;;;29.52;14.32;;;28.00;99.90;;;;;;5049560;28;20035;-63
2022/09/17 15:13:26;;;;;;;33.45;15.43;;;28.10;99.90;;;;;;5051793;28;20024;-63
2022/09/17 15:15:52;;;;;;;;;;;28.10;99.90;;;;;;5055410;28;20025;-63
2022/09/17 15:18:21;;;;;;;41.90;18.02;;;28.00;99.90;;;;;;5054844;28;19905;-63
2022/09/17 15:20:49;;;;;;;43.60;20.98;;;28.00;99.90;;;;;;5054591;28;20029;-63
2022/09/17 15:23:19;;;;;;;49.30;24.23;;;28.00;99.90;;;;;;5055012;28;20021;-65
2022/09/17 15:25:47;;;;;;;52.22;26.80;;;27.90;99.90;;;;;;5034444;28;20044;-65
2022/09/17 15:28:21;;;;;;;49.08;26.60;;;28.00;99.90;;;;;;5035446;28;20599;-65
2022/09/17 15:30:50;;;;;;;52.42;29.25;;;28.00;99.90;;;;;;5034236;28;20128;-65
2022/09/17 15:33:18;;;;;;;60.13;32.50;;;27.90;99.90;;;;;;5034291;28;20075;-65